Hengch'un, Taiwan
Current Conditions -  °F | °C
As of 11:00 AM on Sunday 26 Oct 2014 (Local Time) from RCKH Reporting Station
Haze Haze  
Wind Chill: 30°   Ceiling: 30000
Heat Index: 33°   Visibility: 2.8mi
Dew Point: 22°   Wind: 8mph
Humidity: 62%   Direction: 270°W
Pressure: 30"   Gusts: NA
Location:  22°N, 120.75°E
Report Text: RCKH 260300Z 27007KT 230V330 4500 HZ FEW016 SCT090 BKN30030/22 Q1016 TEMPO 5000 HZ RMK A3002
Loading
Personal Weather Stations






























Interactive Weather Map
Tropical Storm Tracking
New forecast layout! Learn more

10-Day Weather Forecast

Advertisements
Track Severe Weather on mobile